Terminal Aerodrome Forecast
Issued by NWS

Home | Current Version | Previous Version | Graphics & Text | Print | Product List | Glossary On
Versions: 1 2 3 4 5 6 7 8 9 10 11 12 13 14 15 16 17 18
000
FTUS43 KGRB 242300
TAFCWA
TAF
KCWA 242321Z 2500/2524 30017G27KT P6SM SKC
     FM250100 31012KT P6SM SKC
     FM250400 31006KT P6SM SCT200
     FM251000 32004KT P6SM BKN150
     FM252000 35004KT P6SM BKN080
      AMD LTD TO CLD VIS AND WIND 2503/2511=

USA.gov is the U.S. government's official web portal to all federal, state and local government web resources and services.